sensor_id;sensor_type;location;lat;lon;timestamp;P1;durP1;ratioP1;P2;durP2;ratioP2
52554;SDS011;38455;52.710;6.502;2023-06-05T00:01:11;12.25;;;6.32;;
52554;SDS011;38455;52.710;6.502;2023-06-05T00:03:36;8.10;;;5.95;;
52554;SDS011;38455;52.710;6.502;2023-06-05T00:06:04;11.05;;;5.85;;
52554;SDS011;38455;52.710;6.502;2023-06-05T00:08:31;11.32;;;5.50;;
52554;SDS011;38455;52.710;6.502;2023-06-05T00:10:57;9.55;;;5.88;;
52554;SDS011;38455;52.710;6.502;2023-06-05T00:13:22;9.05;;;5.93;;
52554;SDS011;38455;52.710;6.502;2023-06-05T00:15:48;11.20;;;6.07;;
52554;SDS011;38455;52.710;6.502;2023-06-05T00:18:14;9.70;;;6.47;;
52554;SDS011;38455;52.710;6.502;2023-06-05T00:20:40;13.40;;;6.75;;
52554;SDS011;38455;52.710;6.502;2023-06-05T00:23:06;13.55;;;6.35;;
52554;SDS011;38455;52.710;6.502;2023-06-05T00:25:33;12.73;;;6.60;;
52554;SDS011;38455;52.710;6.502;2023-06-05T00:27:59;9.13;;;6.10;;
52554;SDS011;38455;52.710;6.502;2023-06-05T00:30:24;10.20;;;6.13;;
52554;SDS011;38455;52.710;6.502;2023-06-05T00:32:50;10.10;;;6.45;;
52554;SDS011;38455;52.710;6.502;2023-06-05T00:35:16;8.70;;;6.25;;
52554;SDS011;38455;52.710;6.502;2023-06-05T00:37:41;10.15;;;6.85;;
52554;SDS011;38455;52.710;6.502;2023-06-05T00:40:08;12.63;;;6.35;;
52554;SDS011;38455;52.710;6.502;2023-06-05T00:42:34;15.02;;;6.22;;
52554;SDS011;38455;52.710;6.502;2023-06-05T00:45:00;9.95;;;5.85;;
52554;SDS011;38455;52.710;6.502;2023-06-05T00:47:25;10.70;;;6.28;;
52554;SDS011;38455;52.710;6.502;2023-06-05T00:49:51;11.27;;;5.78;;
52554;SDS011;38455;52.710;6.502;2023-06-05T00:52:17;12.88;;;6.07;;
52554;SDS011;38455;52.710;6.502;2023-06-05T00:54:44;10.70;;;5.72;;
52554;SDS011;38455;52.710;6.502;2023-06-05T00:57:10;8.32;;;6.15;;
52554;SDS011;38455;52.710;6.502;2023-06-05T00:59:36;12.88;;;6.40;;
52554;SDS011;38455;52.710;6.502;2023-06-05T01:02:02;12.25;;;5.70;;
52554;SDS011;38455;52.710;6.502;2023-06-05T01:04:29;8.45;;;6.25;;
52554;SDS011;38455;52.710;6.502;2023-06-05T01:06:55;13.63;;;6.13;;
52554;SDS011;38455;52.710;6.502;2023-06-05T01:09:22;11.93;;;6.60;;
52554;SDS011;38455;52.710;6.502;2023-06-05T01:12:02;10.05;;;6.03;;
52554;SDS011;38455;52.710;6.502;2023-06-05T01:14:33;9.57;;;5.95;;
52554;SDS011;38455;52.710;6.502;2023-06-05T01:17:01;12.13;;;6.80;;
52554;SDS011;38455;52.710;6.502;2023-06-05T01:19:29;14.95;;;7.88;;
52554;SDS011;38455;52.710;6.502;2023-06-05T01:21:57;10.27;;;6.35;;
52554;SDS011;38455;52.710;6.502;2023-06-05T01:24:23;9.52;;;6.00;;
52554;SDS011;38455;52.710;6.502;2023-06-05T01:32:21;17.63;;;7.82;;
52554;SDS011;38455;52.710;6.502;2023-06-05T01:34:53;16.33;;;7.35;;
52554;SDS011;38455;52.710;6.502;2023-06-05T01:37:20;11.48;;;6.40;;
52554;SDS011;38455;52.710;6.502;2023-06-05T01:39:50;11.65;;;7.50;;
52554;SDS011;38455;52.710;6.502;2023-06-05T01:42:16;12.45;;;8.27;;
52554;SDS011;38455;52.710;6.502;2023-06-05T01:44:42;11.15;;;6.82;;
52554;SDS011;38455;52.710;6.502;2023-06-05T01:47:09;11.73;;;7.60;;
52554;SDS011;38455;52.710;6.502;2023-06-05T01:49:35;10.60;;;6.70;;
52554;SDS011;38455;52.710;6.502;2023-06-05T01:52:01;10.98;;;7.45;;
52554;SDS011;38455;52.710;6.502;2023-06-05T01:54:27;14.27;;;7.70;;
52554;SDS011;38455;52.710;6.502;2023-06-05T01:56:53;11.55;;;7.20;;
52554;SDS011;38455;52.710;6.502;2023-06-05T01:59:20;12.25;;;7.85;;
52554;SDS011;38455;52.710;6.502;2023-06-05T02:01:46;12.15;;;7.68;;
52554;SDS011;38455;52.710;6.502;2023-06-05T02:04:12;15.93;;;7.38;;
52554;SDS011;38455;52.710;6.502;2023-06-05T02:06:43;13.57;;;7.75;;
52554;SDS011;38455;52.710;6.502;2023-06-05T02:09:10;15.82;;;7.55;;
52554;SDS011;38455;52.710;6.502;2023-06-05T02:11:36;15.57;;;7.22;;
52554;SDS011;38455;52.710;6.502;2023-06-05T02:14:05;11.85;;;7.25;;
52554;SDS011;38455;52.710;6.502;2023-06-05T02:16:37;11.77;;;8.25;;
52554;SDS011;38455;52.710;6.502;2023-06-05T02:19:03;13.50;;;7.00;;
52554;SDS011;38455;52.710;6.502;2023-06-05T02:21:29;19.48;;;8.88;;
52554;SDS011;38455;52.710;6.502;2023-06-05T02:23:57;12.50;;;7.30;;
52554;SDS011;38455;52.710;6.502;2023-06-05T02:26:26;12.45;;;7.50;;
52554;SDS011;38455;52.710;6.502;2023-06-05T02:28:52;14.15;;;8.23;;
52554;SDS011;38455;52.710;6.502;2023-06-05T02:31:20;12.15;;;8.05;;
52554;SDS011;38455;52.710;6.502;2023-06-05T02:33:53;15.38;;;8.23;;
52554;SDS011;38455;52.710;6.502;2023-06-05T02:36:20;12.98;;;8.07;;
52554;SDS011;38455;52.710;6.502;2023-06-05T02:38:47;13.88;;;8.65;;
52554;SDS011;38455;52.710;6.502;2023-06-05T02:41:15;13.60;;;8.77;;
52554;SDS011;38455;52.710;6.502;2023-06-05T02:43:44;15.30;;;8.00;;
52554;SDS011;38455;52.710;6.502;2023-06-05T02:46:10;15.95;;;8.70;;
52554;SDS011;38455;52.710;6.502;2023-06-05T02:48:36;17.98;;;9.43;;
52554;SDS011;38455;52.710;6.502;2023-06-05T02:51:02;15.32;;;9.00;;
52554;SDS011;38455;52.710;6.502;2023-06-05T02:53:28;12.38;;;8.55;;
52554;SDS011;38455;52.710;6.502;2023-06-05T02:55:54;14.55;;;9.18;;
52554;SDS011;38455;52.710;6.502;2023-06-05T02:58:20;17.98;;;9.45;;
52554;SDS011;38455;52.710;6.502;2023-06-05T03:00:46;15.15;;;9.25;;
52554;SDS011;38455;52.710;6.502;2023-06-05T03:03:15;14.90;;;8.75;;
52554;SDS011;38455;52.710;6.502;2023-06-05T03:05:42;13.55;;;8.95;;
52554;SDS011;38455;52.710;6.502;2023-06-05T03:08:09;15.90;;;8.95;;
52554;SDS011;38455;52.710;6.502;2023-06-05T03:10:35;14.30;;;9.45;;
52554;SDS011;38455;52.710;6.502;2023-06-05T03:13:01;18.30;;;9.35;;
52554;SDS011;38455;52.710;6.502;2023-06-05T03:15:27;17.23;;;9.57;;
52554;SDS011;38455;52.710;6.502;2023-06-05T03:17:53;14.60;;;9.43;;
52554;SDS011;38455;52.710;6.502;2023-06-05T03:20:18;17.05;;;9.18;;
52554;SDS011;38455;52.710;6.502;2023-06-05T03:22:44;15.68;;;9.05;;
52554;SDS011;38455;52.710;6.502;2023-06-05T03:25:10;20.77;;;9.63;;
52554;SDS011;38455;52.710;6.502;2023-06-05T03:27:36;17.02;;;9.77;;
52554;SDS011;38455;52.710;6.502;2023-06-05T03:30:02;17.17;;;9.10;;
52554;SDS011;38455;52.710;6.502;2023-06-05T03:32:28;15.65;;;8.88;;
52554;SDS011;38455;52.710;6.502;2023-06-05T03:34:56;17.73;;;9.13;;
52554;SDS011;38455;52.710;6.502;2023-06-05T03:37:21;13.98;;;8.88;;
52554;SDS011;38455;52.710;6.502;2023-06-05T03:39:47;18.10;;;9.90;;
52554;SDS011;38455;52.710;6.502;2023-06-05T03:42:12;15.35;;;8.80;;
52554;SDS011;38455;52.710;6.502;2023-06-05T03:44:38;14.63;;;9.20;;
52554;SDS011;38455;52.710;6.502;2023-06-05T03:47:04;16.00;;;9.00;;
52554;SDS011;38455;52.710;6.502;2023-06-05T03:49:31;16.48;;;8.52;;
52554;SDS011;38455;52.710;6.502;2023-06-05T03:51:56;15.25;;;8.63;;
52554;SDS011;38455;52.710;6.502;2023-06-05T03:54:28;13.95;;;9.63;;
52554;SDS011;38455;52.710;6.502;2023-06-05T03:56:57;16.27;;;8.85;;
52554;SDS011;38455;52.710;6.502;2023-06-05T03:59:25;18.08;;;10.07;;
52554;SDS011;38455;52.710;6.502;2023-06-05T04:01:55;16.35;;;9.57;;
52554;SDS011;38455;52.710;6.502;2023-06-05T04:04:21;24.40;;;10.80;;
52554;SDS011;38455;52.710;6.502;2023-06-05T04:06:47;15.85;;;8.18;;
52554;SDS011;38455;52.710;6.502;2023-06-05T04:09:13;18.77;;;9.65;;
52554;SDS011;38455;52.710;6.502;2023-06-05T04:11:42;16.90;;;9.30;;
52554;SDS011;38455;52.710;6.502;2023-06-05T04:14:09;13.52;;;9.15;;
52554;SDS011;38455;52.710;6.502;2023-06-05T04:16:36;16.23;;;8.77;;
52554;SDS011;38455;52.710;6.502;2023-06-05T04:19:06;16.40;;;8.80;;
52554;SDS011;38455;52.710;6.502;2023-06-05T04:21:34;14.65;;;9.57;;
52554;SDS011;38455;52.710;6.502;2023-06-05T04:24:03;16.10;;;8.70;;
52554;SDS011;38455;52.710;6.502;2023-06-05T04:26:32;15.02;;;8.35;;
52554;SDS011;38455;52.710;6.502;2023-06-05T04:29:02;11.57;;;8.05;;
52554;SDS011;38455;52.710;6.502;2023-06-05T04:31:35;15.18;;;8.65;;
52554;SDS011;38455;52.710;6.502;2023-06-05T04:34:00;27.35;;;10.15;;
52554;SDS011;38455;52.710;6.502;2023-06-05T04:36:27;14.27;;;8.60;;
52554;SDS011;38455;52.710;6.502;2023-06-05T04:38:53;11.73;;;8.05;;
52554;SDS011;38455;52.710;6.502;2023-06-05T04:41:19;14.85;;;7.82;;
52554;SDS011;38455;52.710;6.502;2023-06-05T04:43:46;17.58;;;9.30;;
52554;SDS011;38455;52.710;6.502;2023-06-05T04:46:12;15.77;;;7.72;;
52554;SDS011;38455;52.710;6.502;2023-06-05T04:48:38;12.18;;;7.57;;
52554;SDS011;38455;52.710;6.502;2023-06-05T04:51:03;14.77;;;7.65;;
52554;SDS011;38455;52.710;6.502;2023-06-05T04:53:29;13.95;;;7.60;;
52554;SDS011;38455;52.710;6.502;2023-06-05T04:55:56;13.25;;;8.07;;
52554;SDS011;38455;52.710;6.502;2023-06-05T04:58:25;13.38;;;8.40;;
52554;SDS011;38455;52.710;6.502;2023-06-05T05:00:51;12.30;;;6.90;;
52554;SDS011;38455;52.710;6.502;2023-06-05T05:03:16;15.35;;;7.60;;
52554;SDS011;38455;52.710;6.502;2023-06-05T05:05:42;13.65;;;7.55;;
52554;SDS011;38455;52.710;6.502;2023-06-05T05:08:08;11.15;;;6.55;;
52554;SDS011;38455;52.710;6.502;2023-06-05T05:10:33;13.80;;;7.13;;
52554;SDS011;38455;52.710;6.502;2023-06-05T05:12:59;10.63;;;6.95;;
52554;SDS011;38455;52.710;6.502;2023-06-05T05:15:28;10.93;;;6.25;;
52554;SDS011;38455;52.710;6.502;2023-06-05T05:17:54;12.05;;;5.90;;
52554;SDS011;38455;52.710;6.502;2023-06-05T05:20:21;8.82;;;6.32;;
52554;SDS011;38455;52.710;6.502;2023-06-05T05:22:47;11.35;;;6.72;;
52554;SDS011;38455;52.710;6.502;2023-06-05T05:25:13;10.27;;;6.15;;
52554;SDS011;38455;52.710;6.502;2023-06-05T05:27:38;11.25;;;6.15;;
52554;SDS011;38455;52.710;6.502;2023-06-05T05:30:05;12.25;;;5.80;;
52554;SDS011;38455;52.710;6.502;2023-06-05T05:32:33;6.63;;;5.07;;
52554;SDS011;38455;52.710;6.502;2023-06-05T05:34:59;9.18;;;5.25;;
52554;SDS011;38455;52.710;6.502;2023-06-05T05:37:24;10.02;;;5.35;;
52554;SDS011;38455;52.710;6.502;2023-06-05T05:39:51;6.40;;;4.72;;
52554;SDS011;38455;52.710;6.502;2023-06-05T05:42:17;8.27;;;5.20;;
52554;SDS011;38455;52.710;6.502;2023-06-05T05:44:43;11.38;;;5.45;;
52554;SDS011;38455;52.710;6.502;2023-06-05T05:47:09;7.57;;;4.25;;
52554;SDS011;38455;52.710;6.502;2023-06-05T05:49:35;9.65;;;4.47;;
52554;SDS011;38455;52.710;6.502;2023-06-05T05:52:01;8.52;;;4.57;;
52554;SDS011;38455;52.710;6.502;2023-06-05T05:54:27;8.23;;;4.80;;
52554;SDS011;38455;52.710;6.502;2023-06-05T05:56:54;7.50;;;4.05;;
52554;SDS011;38455;52.710;6.502;2023-06-05T05:59:19;6.57;;;4.28;;
52554;SDS011;38455;52.710;6.502;2023-06-05T06:01:46;7.07;;;4.10;;
52554;SDS011;38455;52.710;6.502;2023-06-05T06:04:13;6.93;;;3.88;;
52554;SDS011;38455;52.710;6.502;2023-06-05T06:06:41;6.25;;;3.55;;
52554;SDS011;38455;52.710;6.502;2023-06-05T06:09:06;6.55;;;4.22;;
52554;SDS011;38455;52.710;6.502;2023-06-05T06:11:33;6.57;;;4.18;;
52554;SDS011;38455;52.710;6.502;2023-06-05T06:14:01;5.57;;;3.40;;
52554;SDS011;38455;52.710;6.502;2023-06-05T06:16:27;9.10;;;4.28;;
52554;SDS011;38455;52.710;6.502;2023-06-05T06:18:52;7.90;;;4.13;;
52554;SDS011;38455;52.710;6.502;2023-06-05T06:21:20;6.78;;;3.65;;
52554;SDS011;38455;52.710;6.502;2023-06-05T06:23:45;6.93;;;3.53;;
52554;SDS011;38455;52.710;6.502;2023-06-05T06:26:12;7.45;;;3.95;;
52554;SDS011;38455;52.710;6.502;2023-06-05T06:28:40;7.18;;;3.58;;
52554;SDS011;38455;52.710;6.502;2023-06-05T06:31:06;7.00;;;4.10;;
52554;SDS011;38455;52.710;6.502;2023-06-05T06:33:32;5.07;;;3.53;;
52554;SDS011;38455;52.710;6.502;2023-06-05T06:35:58;4.53;;;3.70;;
52554;SDS011;38455;52.710;6.502;2023-06-05T06:38:24;8.10;;;4.13;;
52554;SDS011;38455;52.710;6.502;2023-06-05T06:40:55;7.50;;;4.28;;
52554;SDS011;38455;52.710;6.502;2023-06-05T06:43:24;5.32;;;3.92;;
52554;SDS011;38455;52.710;6.502;2023-06-05T06:45:51;6.00;;;3.55;;
52554;SDS011;38455;52.710;6.502;2023-06-05T06:48:17;7.80;;;3.90;;
52554;SDS011;38455;52.710;6.502;2023-06-05T06:50:43;5.40;;;3.30;;
52554;SDS011;38455;52.710;6.502;2023-06-05T06:53:09;5.78;;;3.63;;
52554;SDS011;38455;52.710;6.502;2023-06-05T06:55:35;8.13;;;3.50;;
52554;SDS011;38455;52.710;6.502;2023-06-05T06:58:01;4.82;;;3.83;;
52554;SDS011;38455;52.710;6.502;2023-06-05T07:00:27;6.00;;;3.72;;
52554;SDS011;38455;52.710;6.502;2023-06-05T07:02:53;8.45;;;3.40;;
52554;SDS011;38455;52.710;6.502;2023-06-05T07:05:19;6.15;;;4.22;;
52554;SDS011;38455;52.710;6.502;2023-06-05T07:07:45;6.60;;;3.83;;
52554;SDS011;38455;52.710;6.502;2023-06-05T07:10:10;6.68;;;4.00;;
52554;SDS011;38455;52.710;6.502;2023-06-05T07:12:36;7.97;;;3.92;;
52554;SDS011;38455;52.710;6.502;2023-06-05T07:15:02;7.07;;;4.32;;
52554;SDS011;38455;52.710;6.502;2023-06-05T07:17:28;5.47;;;4.00;;
52554;SDS011;38455;52.710;6.502;2023-06-05T07:19:55;4.53;;;3.42;;
52554;SDS011;38455;52.710;6.502;2023-06-05T07:22:22;5.32;;;3.67;;
52554;SDS011;38455;52.710;6.502;2023-06-05T07:24:49;4.70;;;4.07;;
52554;SDS011;38455;52.710;6.502;2023-06-05T07:27:15;6.18;;;3.95;;
52554;SDS011;38455;52.710;6.502;2023-06-05T07:29:41;5.65;;;4.03;;
52554;SDS011;38455;52.710;6.502;2023-06-05T07:32:07;6.82;;;4.20;;
52554;SDS011;38455;52.710;6.502;2023-06-05T07:34:33;7.03;;;4.25;;
52554;SDS011;38455;52.710;6.502;2023-06-05T07:36:59;10.88;;;3.47;;
52554;SDS011;38455;52.710;6.502;2023-06-05T07:39:25;7.35;;;4.45;;
52554;SDS011;38455;52.710;6.502;2023-06-05T07:41:51;6.78;;;3.60;;
52554;SDS011;38455;52.710;6.502;2023-06-05T07:44:17;4.28;;;3.20;;
52554;SDS011;38455;52.710;6.502;2023-06-05T07:46:45;5.07;;;3.50;;
52554;SDS011;38455;52.710;6.502;2023-06-05T07:49:11;5.80;;;3.88;;
52554;SDS011;38455;52.710;6.502;2023-06-05T07:51:37;6.88;;;3.58;;
52554;SDS011;38455;52.710;6.502;2023-06-05T07:54:05;5.93;;;3.50;;
52554;SDS011;38455;52.710;6.502;2023-06-05T07:56:31;4.90;;;3.50;;
52554;SDS011;38455;52.710;6.502;2023-06-05T07:58:58;5.15;;;3.63;;
52554;SDS011;38455;52.710;6.502;2023-06-05T08:01:28;4.65;;;3.10;;
52554;SDS011;38455;52.710;6.502;2023-06-05T08:03:55;4.60;;;3.33;;
52554;SDS011;38455;52.710;6.502;2023-06-05T08:06:21;6.03;;;3.35;;
52554;SDS011;38455;52.710;6.502;2023-06-05T08:08:49;4.95;;;3.05;;
52554;SDS011;38455;52.710;6.502;2023-06-05T08:11:15;4.45;;;2.90;;
52554;SDS011;38455;52.710;6.502;2023-06-05T08:13:41;4.22;;;3.17;;
52554;SDS011;38455;52.710;6.502;2023-06-05T08:16:08;4.85;;;2.60;;
52554;SDS011;38455;52.710;6.502;2023-06-05T08:18:33;4.30;;;2.95;;
52554;SDS011;38455;52.710;6.502;2023-06-05T08:20:59;6.45;;;2.80;;
52554;SDS011;38455;52.710;6.502;2023-06-05T08:23:25;6.20;;;3.50;;
52554;SDS011;38455;52.710;6.502;2023-06-05T08:25:52;6.30;;;3.00;;
52554;SDS011;38455;52.710;6.502;2023-06-05T08:28:18;5.32;;;2.60;;
52554;SDS011;38455;52.710;6.502;2023-06-05T08:30:43;5.07;;;2.70;;
52554;SDS011;38455;52.710;6.502;2023-06-05T08:33:12;3.88;;;2.75;;
52554;SDS011;38455;52.710;6.502;2023-06-05T08:35:41;3.80;;;2.38;;
52554;SDS011;38455;52.710;6.502;2023-06-05T08:38:06;5.78;;;2.58;;
52554;SDS011;38455;52.710;6.502;2023-06-05T08:40:32;3.97;;;2.33;;
52554;SDS011;38455;52.710;6.502;2023-06-05T08:43:02;3.90;;;2.67;;
52554;SDS011;38455;52.710;6.502;2023-06-05T08:45:28;6.40;;;2.40;;
52554;SDS011;38455;52.710;6.502;2023-06-05T08:47:55;8.77;;;2.47;;
52554;SDS011;38455;52.710;6.502;2023-06-05T08:50:24;3.92;;;2.70;;
52554;SDS011;38455;52.710;6.502;2023-06-05T08:52:52;3.95;;;2.47;;
52554;SDS011;38455;52.710;6.502;2023-06-05T08:55:21;3.95;;;2.72;;
52554;SDS011;38455;52.710;6.502;2023-06-05T08:57:47;4.88;;;2.42;;
52554;SDS011;38455;52.710;6.502;2023-06-05T09:00:13;4.22;;;2.60;;
52554;SDS011;38455;52.710;6.502;2023-06-05T09:02:40;5.30;;;2.15;;
52554;SDS011;38455;52.710;6.502;2023-06-05T09:05:12;4.07;;;2.25;;
52554;SDS011;38455;52.710;6.502;2023-06-05T09:07:38;4.72;;;2.83;;
52554;SDS011;38455;52.710;6.502;2023-06-05T09:10:05;3.53;;;2.30;;
52554;SDS011;38455;52.710;6.502;2023-06-05T09:12:32;5.53;;;2.17;;
52554;SDS011;38455;52.710;6.502;2023-06-05T09:18:15;3.63;;;2.28;;
52554;SDS011;38455;52.710;6.502;2023-06-05T09:20:41;2.80;;;1.92;;
52554;SDS011;38455;52.710;6.502;2023-06-05T09:23:21;5.20;;;2.10;;
52554;SDS011;38455;52.710;6.502;2023-06-05T09:25:52;4.60;;;2.40;;
52554;SDS011;38455;52.710;6.502;2023-06-05T09:28:18;4.22;;;2.22;;
52554;SDS011;38455;52.710;6.502;2023-06-05T09:30:54;8.27;;;2.25;;
52554;SDS011;38455;52.710;6.502;2023-06-05T09:33:24;4.47;;;2.45;;
52554;SDS011;38455;52.710;6.502;2023-06-05T09:36:11;4.68;;;2.47;;
52554;SDS011;38455;52.710;6.502;2023-06-05T09:38:38;5.43;;;2.25;;
52554;SDS011;38455;52.710;6.502;2023-06-05T09:41:08;4.55;;;2.58;;
52554;SDS011;38455;52.710;6.502;2023-06-05T09:43:36;4.88;;;2.50;;
52554;SDS011;38455;52.710;6.502;2023-06-05T09:46:09;5.93;;;2.53;;
52554;SDS011;38455;52.710;6.502;2023-06-05T09:48:39;5.55;;;2.53;;
52554;SDS011;38455;52.710;6.502;2023-06-05T09:53:34;4.68;;;2.10;;
52554;SDS011;38455;52.710;6.502;2023-06-05T09:56:05;3.63;;;2.20;;
52554;SDS011;38455;52.710;6.502;2023-06-05T09:58:34;4.05;;;2.05;;
52554;SDS011;38455;52.710;6.502;2023-06-05T10:01:02;4.75;;;2.28;;
52554;SDS011;38455;52.710;6.502;2023-06-05T10:03:32;7.30;;;2.40;;
52554;SDS011;38455;52.710;6.502;2023-06-05T10:06:00;4.13;;;2.72;;
52554;SDS011;38455;52.710;6.502;2023-06-05T10:08:29;3.88;;;2.35;;
52554;SDS011;38455;52.710;6.502;2023-06-05T10:10:56;5.78;;;2.00;;
52554;SDS011;38455;52.710;6.502;2023-06-05T10:13:22;3.55;;;2.47;;
52554;SDS011;38455;52.710;6.502;2023-06-05T10:15:48;4.57;;;2.00;;
52554;SDS011;38455;52.710;6.502;2023-06-05T10:18:17;4.65;;;2.20;;
52554;SDS011;38455;52.710;6.502;2023-06-05T10:20:42;5.50;;;2.72;;
52554;SDS011;38455;52.710;6.502;2023-06-05T10:23:11;2.45;;;1.95;;
52554;SDS011;38455;52.710;6.502;2023-06-05T10:25:40;4.00;;;2.50;;
52554;SDS011;38455;52.710;6.502;2023-06-05T10:33:45;4.03;;;1.83;;
52554;SDS011;38455;52.710;6.502;2023-06-05T10:39:24;3.50;;;2.03;;
52554;SDS011;38455;52.710;6.502;2023-06-05T10:41:51;6.10;;;2.05;;
52554;SDS011;38455;52.710;6.502;2023-06-05T10:44:17;3.78;;;2.05;;
52554;SDS011;38455;52.710;6.502;2023-06-05T10:46:42;4.60;;;1.85;;
52554;SDS011;38455;52.710;6.502;2023-06-05T10:49:12;2.60;;;1.60;;
52554;SDS011;38455;52.710;6.502;2023-06-05T10:54:07;4.53;;;2.40;;
52554;SDS011;38455;52.710;6.502;2023-06-05T10:59:35;3.67;;;1.48;;
52554;SDS011;38455;52.710;6.502;2023-06-05T11:07:17;5.07;;;2.00;;
52554;SDS011;38455;52.710;6.502;2023-06-05T11:15:00;4.00;;;1.80;;
52554;SDS011;38455;52.710;6.502;2023-06-05T11:17:31;3.30;;;1.67;;
52554;SDS011;38455;52.710;6.502;2023-06-05T11:19:58;3.65;;;1.80;;
52554;SDS011;38455;52.710;6.502;2023-06-05T11:22:25;4.35;;;1.95;;
52554;SDS011;38455;52.710;6.502;2023-06-05T11:27:43;3.03;;;1.70;;
52554;SDS011;38455;52.710;6.502;2023-06-05T11:30:17;3.55;;;1.90;;
52554;SDS011;38455;52.710;6.502;2023-06-05T11:32:45;4.15;;;2.15;;
52554;SDS011;38455;52.710;6.502;2023-06-05T11:35:11;9.13;;;2.60;;
52554;SDS011;38455;52.710;6.502;2023-06-05T11:37:37;4.03;;;1.90;;
52554;SDS011;38455;52.710;6.502;2023-06-05T11:40:07;4.07;;;2.15;;
52554;SDS011;38455;52.710;6.502;2023-06-05T11:42:34;6.53;;;2.13;;
52554;SDS011;38455;52.710;6.502;2023-06-05T11:45:01;3.65;;;1.88;;
52554;SDS011;38455;52.710;6.502;2023-06-05T11:47:27;7.53;;;2.28;;
52554;SDS011;38455;52.710;6.502;2023-06-05T11:50:06;3.13;;;2.10;;
52554;SDS011;38455;52.710;6.502;2023-06-05T11:52:33;4.22;;;2.45;;
52554;SDS011;38455;52.710;6.502;2023-06-05T11:55:15;3.58;;;1.95;;
52554;SDS011;38455;52.710;6.502;2023-06-05T11:57:45;4.40;;;2.03;;
52554;SDS011;38455;52.710;6.502;2023-06-05T12:00:15;4.35;;;2.28;;
52554;SDS011;38455;52.710;6.502;2023-06-05T12:02:47;3.50;;;2.42;;
52554;SDS011;38455;52.710;6.502;2023-06-05T12:05:13;3.55;;;2.45;;
52554;SDS011;38455;52.710;6.502;2023-06-05T12:07:39;3.72;;;2.00;;
52554;SDS011;38455;52.710;6.502;2023-06-05T12:10:05;5.10;;;2.22;;
52554;SDS011;38455;52.710;6.502;2023-06-05T12:12:32;6.35;;;1.90;;
52554;SDS011;38455;52.710;6.502;2023-06-05T12:15:14;3.90;;;2.15;;
52554;SDS011;38455;52.710;6.502;2023-06-05T12:17:47;4.70;;;2.08;;
52554;SDS011;38455;52.710;6.502;2023-06-05T12:20:15;2.53;;;1.70;;
52554;SDS011;38455;52.710;6.502;2023-06-05T12:22:40;4.25;;;1.85;;
52554;SDS011;38455;52.710;6.502;2023-06-05T12:25:18;4.03;;;1.90;;
52554;SDS011;38455;52.710;6.502;2023-06-05T12:27:45;4.57;;;1.85;;
52554;SDS011;38455;52.710;6.502;2023-06-05T12:30:11;4.60;;;1.70;;
52554;SDS011;38455;52.710;6.502;2023-06-05T12:32:38;2.88;;;1.38;;
52554;SDS011;38455;52.710;6.502;2023-06-05T12:35:04;5.03;;;2.10;;
52554;SDS011;38455;52.710;6.502;2023-06-05T12:37:32;2.83;;;1.90;;
52554;SDS011;38455;52.710;6.502;2023-06-05T12:40:02;6.68;;;1.95;;
52554;SDS011;38455;52.710;6.502;2023-06-05T12:42:39;3.13;;;2.30;;
52554;SDS011;38455;52.710;6.502;2023-06-05T12:45:08;3.88;;;2.08;;
52554;SDS011;38455;52.710;6.502;2023-06-05T12:47:35;2.83;;;2.30;;
52554;SDS011;38455;52.710;6.502;2023-06-05T12:50:02;3.70;;;2.40;;
52554;SDS011;38455;52.710;6.502;2023-06-05T12:52:28;5.38;;;2.40;;
52554;SDS011;38455;52.710;6.502;2023-06-05T12:54:55;3.88;;;2.20;;
52554;SDS011;38455;52.710;6.502;2023-06-05T12:57:22;3.95;;;2.13;;
52554;SDS011;38455;52.710;6.502;2023-06-05T12:59:48;3.90;;;2.10;;
52554;SDS011;38455;52.710;6.502;2023-06-05T13:02:18;3.50;;;2.20;;
52554;SDS011;38455;52.710;6.502;2023-06-05T13:04:44;2.97;;;1.95;;
52554;SDS011;38455;52.710;6.502;2023-06-05T13:07:10;4.57;;;2.40;;
52554;SDS011;38455;52.710;6.502;2023-06-05T13:09:36;3.13;;;2.03;;
52554;SDS011;38455;52.710;6.502;2023-06-05T13:12:02;5.32;;;2.53;;
52554;SDS011;38455;52.710;6.502;2023-06-05T13:14:31;6.75;;;2.20;;
52554;SDS011;38455;52.710;6.502;2023-06-05T13:16:57;4.07;;;1.92;;
52554;SDS011;38455;52.710;6.502;2023-06-05T13:19:24;5.65;;;1.90;;
52554;SDS011;38455;52.710;6.502;2023-06-05T13:21:50;3.55;;;1.90;;
52554;SDS011;38455;52.710;6.502;2023-06-05T13:24:16;4.25;;;2.10;;
52554;SDS011;38455;52.710;6.502;2023-06-05T13:26:42;4.82;;;2.50;;
52554;SDS011;38455;52.710;6.502;2023-06-05T13:29:09;5.35;;;2.10;;
52554;SDS011;38455;52.710;6.502;2023-06-05T13:31:35;5.78;;;2.13;;
52554;SDS011;38455;52.710;6.502;2023-06-05T13:34:01;7.13;;;1.98;;
52554;SDS011;38455;52.710;6.502;2023-06-05T13:36:27;2.92;;;2.17;;
52554;SDS011;38455;52.710;6.502;2023-06-05T13:38:52;6.18;;;2.00;;
52554;SDS011;38455;52.710;6.502;2023-06-05T13:41:18;6.78;;;2.40;;
52554;SDS011;38455;52.710;6.502;2023-06-05T13:43:44;4.43;;;2.05;;
52554;SDS011;38455;52.710;6.502;2023-06-05T13:46:10;3.67;;;2.22;;
52554;SDS011;38455;52.710;6.502;2023-06-05T13:48:36;3.30;;;2.25;;
52554;SDS011;38455;52.710;6.502;2023-06-05T13:51:02;2.80;;;2.25;;
52554;SDS011;38455;52.710;6.502;2023-06-05T13:53:29;3.13;;;1.88;;
52554;SDS011;38455;52.710;6.502;2023-06-05T13:56:05;4.43;;;2.20;;
52554;SDS011;38455;52.710;6.502;2023-06-05T13:58:31;5.30;;;2.30;;
52554;SDS011;38455;52.710;6.502;2023-06-05T14:00:57;7.97;;;2.08;;
52554;SDS011;38455;52.710;6.502;2023-06-05T14:03:24;4.18;;;1.95;;
52554;SDS011;38455;52.710;6.502;2023-06-05T14:05:50;6.50;;;2.35;;
52554;SDS011;38455;52.710;6.502;2023-06-05T14:08:16;4.28;;;2.10;;
52554;SDS011;38455;52.710;6.502;2023-06-05T14:10:41;6.18;;;2.13;;
52554;SDS011;38455;52.710;6.502;2023-06-05T14:13:07;6.78;;;2.63;;
52554;SDS011;38455;52.710;6.502;2023-06-05T14:15:33;5.93;;;2.53;;
52554;SDS011;38455;52.710;6.502;2023-06-05T14:18:00;7.40;;;2.60;;
52554;SDS011;38455;52.710;6.502;2023-06-05T14:20:27;4.18;;;2.55;;
52554;SDS011;38455;52.710;6.502;2023-06-05T14:22:55;5.47;;;2.17;;
52554;SDS011;38455;52.710;6.502;2023-06-05T14:25:24;4.63;;;2.15;;
52554;SDS011;38455;52.710;6.502;2023-06-05T14:27:54;4.00;;;1.80;;
52554;SDS011;38455;52.710;6.502;2023-06-05T14:30:20;3.60;;;2.00;;
52554;SDS011;38455;52.710;6.502;2023-06-05T14:32:46;3.40;;;2.00;;
52554;SDS011;38455;52.710;6.502;2023-06-05T14:35:12;9.05;;;2.47;;
52554;SDS011;38455;52.710;6.502;2023-06-05T14:37:38;4.45;;;3.03;;
52554;SDS011;38455;52.710;6.502;2023-06-05T14:40:04;11.23;;;2.60;;
52554;SDS011;38455;52.710;6.502;2023-06-05T14:42:31;8.15;;;2.28;;
52554;SDS011;38455;52.710;6.502;2023-06-05T14:44:56;3.40;;;2.00;;
52554;SDS011;38455;52.710;6.502;2023-06-05T14:47:22;4.28;;;2.55;;
52554;SDS011;38455;52.710;6.502;2023-06-05T14:49:48;3.92;;;2.35;;
52554;SDS011;38455;52.710;6.502;2023-06-05T14:52:14;6.38;;;2.33;;
52554;SDS011;38455;52.710;6.502;2023-06-05T14:54:40;6.05;;;2.40;;
52554;SDS011;38455;52.710;6.502;2023-06-05T14:57:06;5.65;;;2.40;;
52554;SDS011;38455;52.710;6.502;2023-06-05T14:59:32;4.15;;;2.58;;
52554;SDS011;38455;52.710;6.502;2023-06-05T15:01:58;4.25;;;1.80;;
52554;SDS011;38455;52.710;6.502;2023-06-05T15:04:24;4.68;;;2.08;;
52554;SDS011;38455;52.710;6.502;2023-06-05T15:06:50;6.20;;;2.20;;
52554;SDS011;38455;52.710;6.502;2023-06-05T15:09:18;3.25;;;2.13;;
52554;SDS011;38455;52.710;6.502;2023-06-05T15:11:47;4.80;;;2.33;;
52554;SDS011;38455;52.710;6.502;2023-06-05T15:14:12;3.67;;;2.03;;
52554;SDS011;38455;52.710;6.502;2023-06-05T15:16:38;6.05;;;2.10;;
52554;SDS011;38455;52.710;6.502;2023-06-05T15:19:04;3.33;;;2.05;;
52554;SDS011;38455;52.710;6.502;2023-06-05T15:21:29;3.10;;;2.17;;